sensor_id;sensor_type;location;lat;lon;timestamp;P1;durP1;ratioP1;P2;durP2;ratioP2
48805;SDS011;34625;47.176;27.548;2022-11-20T00:01:13;12.93;;;9.68;;
48805;SDS011;34625;47.176;27.548;2022-11-20T00:03:41;15.52;;;9.70;;
48805;SDS011;34625;47.176;27.548;2022-11-20T00:06:09;13.70;;;9.85;;
48805;SDS011;34625;47.176;27.548;2022-11-20T00:08:37;14.05;;;8.90;;
48805;SDS011;34625;47.176;27.548;2022-11-20T00:11:04;11.70;;;8.18;;
48805;SDS011;34625;47.176;27.548;2022-11-20T00:13:34;13.48;;;8.85;;
48805;SDS011;34625;47.176;27.548;2022-11-20T00:16:01;15.13;;;8.80;;
48805;SDS011;34625;47.176;27.548;2022-11-20T00:18:29;12.80;;;9.50;;
48805;SDS011;34625;47.176;27.548;2022-11-20T00:21:06;13.20;;;9.20;;
48805;SDS011;34625;47.176;27.548;2022-11-20T00:23:36;14.43;;;9.90;;
48805;SDS011;34625;47.176;27.548;2022-11-20T00:26:02;12.75;;;9.73;;
48805;SDS011;34625;47.176;27.548;2022-11-20T00:28:29;12.70;;;9.00;;
48805;SDS011;34625;47.176;27.548;2022-11-20T00:31:02;11.15;;;7.85;;
48805;SDS011;34625;47.176;27.548;2022-11-20T00:33:33;9.35;;;7.47;;
48805;SDS011;34625;47.176;27.548;2022-11-20T00:36:18;8.75;;;7.05;;
48805;SDS011;34625;47.176;27.548;2022-11-20T00:38:46;12.80;;;8.10;;
48805;SDS011;34625;47.176;27.548;2022-11-20T00:41:13;12.95;;;7.63;;
48805;SDS011;34625;47.176;27.548;2022-11-20T00:43:40;9.85;;;6.85;;
48805;SDS011;34625;47.176;27.548;2022-11-20T00:46:08;9.73;;;7.55;;
48805;SDS011;34625;47.176;27.548;2022-11-20T00:48:37;8.20;;;6.35;;
48805;SDS011;34625;47.176;27.548;2022-11-20T00:51:03;11.80;;;7.47;;
48805;SDS011;34625;47.176;27.548;2022-11-20T00:53:29;8.95;;;6.45;;
48805;SDS011;34625;47.176;27.548;2022-11-20T00:55:56;10.00;;;6.35;;
48805;SDS011;34625;47.176;27.548;2022-11-20T00:58:23;12.82;;;6.60;;
48805;SDS011;34625;47.176;27.548;2022-11-20T01:00:50;11.20;;;6.70;;
48805;SDS011;34625;47.176;27.548;2022-11-20T01:03:17;11.05;;;7.00;;
48805;SDS011;34625;47.176;27.548;2022-11-20T01:05:43;8.57;;;6.07;;
48805;SDS011;34625;47.176;27.548;2022-11-20T01:08:09;10.57;;;6.82;;
48805;SDS011;34625;47.176;27.548;2022-11-20T01:10:36;7.35;;;6.13;;
48805;SDS011;34625;47.176;27.548;2022-11-20T01:13:02;9.57;;;6.40;;
48805;SDS011;34625;47.176;27.548;2022-11-20T01:15:46;11.15;;;6.57;;
48805;SDS011;34625;47.176;27.548;2022-11-20T01:18:12;9.20;;;6.57;;
48805;SDS011;34625;47.176;27.548;2022-11-20T01:20:38;9.38;;;6.63;;
48805;SDS011;34625;47.176;27.548;2022-11-20T01:23:04;8.98;;;6.88;;
48805;SDS011;34625;47.176;27.548;2022-11-20T01:25:30;9.32;;;6.68;;
48805;SDS011;34625;47.176;27.548;2022-11-20T01:27:56;8.80;;;5.97;;
48805;SDS011;34625;47.176;27.548;2022-11-20T01:30:22;9.20;;;6.32;;
48805;SDS011;34625;47.176;27.548;2022-11-20T01:32:48;7.90;;;4.95;;
48805;SDS011;34625;47.176;27.548;2022-11-20T01:35:14;7.68;;;5.85;;
48805;SDS011;34625;47.176;27.548;2022-11-20T01:37:40;6.72;;;5.15;;
48805;SDS011;34625;47.176;27.548;2022-11-20T01:40:06;7.10;;;5.18;;
48805;SDS011;34625;47.176;27.548;2022-11-20T01:42:32;6.70;;;4.78;;
48805;SDS011;34625;47.176;27.548;2022-11-20T01:48:21;6.90;;;5.60;;
48805;SDS011;34625;47.176;27.548;2022-11-20T01:50:51;7.00;;;4.68;;
48805;SDS011;34625;47.176;27.548;2022-11-20T01:53:20;5.95;;;4.60;;
48805;SDS011;34625;47.176;27.548;2022-11-20T01:55:53;5.03;;;4.47;;
48805;SDS011;34625;47.176;27.548;2022-11-20T01:58:23;6.88;;;5.68;;
48805;SDS011;34625;47.176;27.548;2022-11-20T02:00:55;5.35;;;4.07;;
48805;SDS011;34625;47.176;27.548;2022-11-20T02:03:21;6.85;;;5.15;;
48805;SDS011;34625;47.176;27.548;2022-11-20T02:05:51;5.55;;;4.68;;
48805;SDS011;34625;47.176;27.548;2022-11-20T02:08:21;7.43;;;4.82;;
48805;SDS011;34625;47.176;27.548;2022-11-20T02:10:49;5.40;;;3.38;;
48805;SDS011;34625;47.176;27.548;2022-11-20T02:13:15;5.72;;;4.00;;
48805;SDS011;34625;47.176;27.548;2022-11-20T02:15:59;4.18;;;3.78;;
48805;SDS011;34625;47.176;27.548;2022-11-20T02:18:26;5.22;;;4.15;;
48805;SDS011;34625;47.176;27.548;2022-11-20T02:20:56;5.82;;;4.00;;
48805;SDS011;34625;47.176;27.548;2022-11-20T02:26:25;4.32;;;3.35;;
48805;SDS011;34625;47.176;27.548;2022-11-20T02:28:58;3.97;;;3.38;;
48805;SDS011;34625;47.176;27.548;2022-11-20T02:31:26;3.38;;;2.92;;
48805;SDS011;34625;47.176;27.548;2022-11-20T02:33:58;2.72;;;2.50;;
48805;SDS011;34625;47.176;27.548;2022-11-20T02:36:26;3.10;;;2.80;;
48805;SDS011;34625;47.176;27.548;2022-11-20T02:38:53;2.92;;;2.47;;
48805;SDS011;34625;47.176;27.548;2022-11-20T02:41:19;2.97;;;2.53;;
48805;SDS011;34625;47.176;27.548;2022-11-20T02:43:45;2.85;;;2.42;;
48805;SDS011;34625;47.176;27.548;2022-11-20T02:46:11;3.00;;;2.05;;
48805;SDS011;34625;47.176;27.548;2022-11-20T02:48:37;2.83;;;2.60;;
48805;SDS011;34625;47.176;27.548;2022-11-20T02:51:03;2.10;;;1.90;;
48805;SDS011;34625;47.176;27.548;2022-11-20T02:53:29;2.50;;;2.20;;
48805;SDS011;34625;47.176;27.548;2022-11-20T02:55:55;2.92;;;2.35;;
48805;SDS011;34625;47.176;27.548;2022-11-20T02:58:21;2.63;;;2.42;;
48805;SDS011;34625;47.176;27.548;2022-11-20T03:00:47;2.60;;;2.33;;
48805;SDS011;34625;47.176;27.548;2022-11-20T03:03:13;3.10;;;2.50;;
48805;SDS011;34625;47.176;27.548;2022-11-20T03:05:39;2.53;;;2.25;;
48805;SDS011;34625;47.176;27.548;2022-11-20T03:08:05;3.75;;;2.47;;
48805;SDS011;34625;47.176;27.548;2022-11-20T03:10:31;2.97;;;2.38;;
48805;SDS011;34625;47.176;27.548;2022-11-20T03:12:57;3.88;;;2.25;;
48805;SDS011;34625;47.176;27.548;2022-11-20T03:15:23;4.82;;;2.80;;
48805;SDS011;34625;47.176;27.548;2022-11-20T03:17:52;2.60;;;2.28;;
48805;SDS011;34625;47.176;27.548;2022-11-20T03:20:20;3.00;;;2.38;;
48805;SDS011;34625;47.176;27.548;2022-11-20T03:22:46;2.72;;;2.42;;
48805;SDS011;34625;47.176;27.548;2022-11-20T03:25:12;5.00;;;2.53;;
48805;SDS011;34625;47.176;27.548;2022-11-20T03:27:37;3.20;;;2.78;;
48805;SDS011;34625;47.176;27.548;2022-11-20T03:30:04;3.20;;;2.60;;
48805;SDS011;34625;47.176;27.548;2022-11-20T03:32:30;3.67;;;2.90;;
48805;SDS011;34625;47.176;27.548;2022-11-20T03:34:57;4.03;;;2.90;;
48805;SDS011;34625;47.176;27.548;2022-11-20T03:37:23;4.47;;;2.88;;
48805;SDS011;34625;47.176;27.548;2022-11-20T03:39:49;2.83;;;2.50;;
48805;SDS011;34625;47.176;27.548;2022-11-20T03:42:15;3.30;;;2.75;;
48805;SDS011;34625;47.176;27.548;2022-11-20T03:45:00;3.08;;;2.78;;
48805;SDS011;34625;47.176;27.548;2022-11-20T03:47:26;3.17;;;2.88;;
48805;SDS011;34625;47.176;27.548;2022-11-20T03:49:52;3.33;;;2.88;;
48805;SDS011;34625;47.176;27.548;2022-11-20T03:52:17;3.75;;;3.38;;
48805;SDS011;34625;47.176;27.548;2022-11-20T03:54:43;3.42;;;3.05;;
48805;SDS011;34625;47.176;27.548;2022-11-20T03:57:09;4.50;;;3.55;;
48805;SDS011;34625;47.176;27.548;2022-11-20T03:59:35;5.20;;;3.58;;
48805;SDS011;34625;47.176;27.548;2022-11-20T04:02:01;4.72;;;3.50;;
48805;SDS011;34625;47.176;27.548;2022-11-20T04:04:27;4.07;;;3.40;;
48805;SDS011;34625;47.176;27.548;2022-11-20T04:06:53;5.10;;;3.83;;
48805;SDS011;34625;47.176;27.548;2022-11-20T04:09:19;5.00;;;3.78;;
48805;SDS011;34625;47.176;27.548;2022-11-20T04:11:45;4.25;;;3.60;;
48805;SDS011;34625;47.176;27.548;2022-11-20T04:14:14;4.05;;;3.28;;
48805;SDS011;34625;47.176;27.548;2022-11-20T04:16:41;3.60;;;3.30;;
48805;SDS011;34625;47.176;27.548;2022-11-20T04:19:12;4.80;;;3.88;;
48805;SDS011;34625;47.176;27.548;2022-11-20T04:21:41;4.88;;;3.92;;
48805;SDS011;34625;47.176;27.548;2022-11-20T04:24:09;4.20;;;3.72;;
48805;SDS011;34625;47.176;27.548;2022-11-20T04:26:36;4.75;;;4.05;;
48805;SDS011;34625;47.176;27.548;2022-11-20T04:29:02;5.75;;;4.50;;
48805;SDS011;34625;47.176;27.548;2022-11-20T04:31:31;5.10;;;3.78;;
48805;SDS011;34625;47.176;27.548;2022-11-20T04:33:59;4.88;;;3.85;;
48805;SDS011;34625;47.176;27.548;2022-11-20T04:36:27;4.72;;;3.80;;
48805;SDS011;34625;47.176;27.548;2022-11-20T04:38:54;4.85;;;3.90;;
48805;SDS011;34625;47.176;27.548;2022-11-20T04:41:22;4.75;;;3.65;;
48805;SDS011;34625;47.176;27.548;2022-11-20T04:43:50;4.95;;;4.13;;
48805;SDS011;34625;47.176;27.548;2022-11-20T04:46:18;5.60;;;3.85;;
48805;SDS011;34625;47.176;27.548;2022-11-20T04:48:45;6.13;;;4.05;;
48805;SDS011;34625;47.176;27.548;2022-11-20T04:51:12;5.32;;;4.25;;
48805;SDS011;34625;47.176;27.548;2022-11-20T04:53:38;4.35;;;3.85;;
48805;SDS011;34625;47.176;27.548;2022-11-20T04:56:05;6.47;;;4.13;;
48805;SDS011;34625;47.176;27.548;2022-11-20T04:58:33;4.32;;;3.90;;
48805;SDS011;34625;47.176;27.548;2022-11-20T05:01:06;6.80;;;3.90;;
48805;SDS011;34625;47.176;27.548;2022-11-20T05:03:37;4.82;;;4.20;;
48805;SDS011;34625;47.176;27.548;2022-11-20T05:06:08;4.82;;;4.32;;
48805;SDS011;34625;47.176;27.548;2022-11-20T05:08:35;4.10;;;3.28;;
48805;SDS011;34625;47.176;27.548;2022-11-20T05:11:05;5.47;;;4.30;;
48805;SDS011;34625;47.176;27.548;2022-11-20T05:13:32;5.43;;;3.97;;
48805;SDS011;34625;47.176;27.548;2022-11-20T05:16:06;6.47;;;4.32;;
48805;SDS011;34625;47.176;27.548;2022-11-20T05:18:36;4.53;;;3.70;;
48805;SDS011;34625;47.176;27.548;2022-11-20T05:21:03;5.35;;;4.07;;
48805;SDS011;34625;47.176;27.548;2022-11-20T05:23:30;4.97;;;3.85;;
48805;SDS011;34625;47.176;27.548;2022-11-20T05:25:57;5.25;;;4.22;;
48805;SDS011;34625;47.176;27.548;2022-11-20T05:28:24;5.90;;;5.18;;
48805;SDS011;34625;47.176;27.548;2022-11-20T05:30:51;5.85;;;4.50;;
48805;SDS011;34625;47.176;27.548;2022-11-20T05:33:17;5.78;;;4.65;;
48805;SDS011;34625;47.176;27.548;2022-11-20T05:35:44;5.75;;;5.03;;
48805;SDS011;34625;47.176;27.548;2022-11-20T05:38:10;6.75;;;4.57;;
48805;SDS011;34625;47.176;27.548;2022-11-20T05:40:36;6.10;;;4.32;;
48805;SDS011;34625;47.176;27.548;2022-11-20T05:43:03;5.13;;;3.88;;
48805;SDS011;34625;47.176;27.548;2022-11-20T05:45:28;5.10;;;4.53;;
48805;SDS011;34625;47.176;27.548;2022-11-20T05:47:57;4.60;;;3.90;;
48805;SDS011;34625;47.176;27.548;2022-11-20T05:50:25;4.00;;;3.58;;
48805;SDS011;34625;47.176;27.548;2022-11-20T05:52:52;6.28;;;4.72;;
48805;SDS011;34625;47.176;27.548;2022-11-20T05:55:18;5.55;;;4.03;;
48805;SDS011;34625;47.176;27.548;2022-11-20T05:57:45;6.15;;;5.20;;
48805;SDS011;34625;47.176;27.548;2022-11-20T06:00:11;6.70;;;4.07;;
48805;SDS011;34625;47.176;27.548;2022-11-20T06:02:37;5.25;;;4.20;;
48805;SDS011;34625;47.176;27.548;2022-11-20T06:05:03;5.75;;;4.22;;
48805;SDS011;34625;47.176;27.548;2022-11-20T06:07:29;6.18;;;5.15;;
48805;SDS011;34625;47.176;27.548;2022-11-20T06:09:55;5.72;;;4.53;;
48805;SDS011;34625;47.176;27.548;2022-11-20T06:12:21;5.32;;;4.25;;
48805;SDS011;34625;47.176;27.548;2022-11-20T06:14:47;4.45;;;3.90;;
48805;SDS011;34625;47.176;27.548;2022-11-20T06:17:13;5.35;;;4.15;;
48805;SDS011;34625;47.176;27.548;2022-11-20T06:19:39;5.20;;;4.38;;
48805;SDS011;34625;47.176;27.548;2022-11-20T06:22:05;5.13;;;4.18;;
48805;SDS011;34625;47.176;27.548;2022-11-20T06:24:31;6.18;;;4.55;;
48805;SDS011;34625;47.176;27.548;2022-11-20T06:26:57;5.25;;;4.47;;
48805;SDS011;34625;47.176;27.548;2022-11-20T06:29:23;8.88;;;5.78;;
48805;SDS011;34625;47.176;27.548;2022-11-20T06:31:49;6.18;;;4.75;;
48805;SDS011;34625;47.176;27.548;2022-11-20T06:34:15;6.88;;;4.85;;
48805;SDS011;34625;47.176;27.548;2022-11-20T06:36:41;7.65;;;5.53;;
48805;SDS011;34625;47.176;27.548;2022-11-20T06:39:07;5.80;;;4.90;;
48805;SDS011;34625;47.176;27.548;2022-11-20T06:41:33;5.35;;;4.32;;
48805;SDS011;34625;47.176;27.548;2022-11-20T06:43:59;6.55;;;4.43;;
48805;SDS011;34625;47.176;27.548;2022-11-20T06:46:25;3.88;;;3.47;;
48805;SDS011;34625;47.176;27.548;2022-11-20T06:48:51;4.72;;;4.22;;
48805;SDS011;34625;47.176;27.548;2022-11-20T06:51:17;3.22;;;2.72;;
48805;SDS011;34625;47.176;27.548;2022-11-20T06:53:43;3.78;;;3.38;;
48805;SDS011;34625;47.176;27.548;2022-11-20T06:56:09;3.78;;;3.22;;
48805;SDS011;34625;47.176;27.548;2022-11-20T06:58:35;3.50;;;2.88;;
48805;SDS011;34625;47.176;27.548;2022-11-20T07:01:03;4.57;;;3.80;;
48805;SDS011;34625;47.176;27.548;2022-11-20T07:03:31;3.83;;;3.28;;
48805;SDS011;34625;47.176;27.548;2022-11-20T07:05:57;4.00;;;3.50;;
48805;SDS011;34625;47.176;27.548;2022-11-20T07:08:25;4.38;;;3.97;;
48805;SDS011;34625;47.176;27.548;2022-11-20T07:10:51;5.15;;;4.18;;
48805;SDS011;34625;47.176;27.548;2022-11-20T07:13:17;4.72;;;3.88;;
48805;SDS011;34625;47.176;27.548;2022-11-20T07:15:43;5.20;;;3.53;;
48805;SDS011;34625;47.176;27.548;2022-11-20T07:18:09;5.15;;;3.92;;
48805;SDS011;34625;47.176;27.548;2022-11-20T07:20:36;5.30;;;3.92;;
48805;SDS011;34625;47.176;27.548;2022-11-20T07:23:02;3.78;;;3.38;;
48805;SDS011;34625;47.176;27.548;2022-11-20T07:25:28;5.80;;;3.95;;
48805;SDS011;34625;47.176;27.548;2022-11-20T07:27:59;6.10;;;5.15;;
48805;SDS011;34625;47.176;27.548;2022-11-20T07:30:26;8.25;;;6.47;;
48805;SDS011;34625;47.176;27.548;2022-11-20T07:32:53;9.82;;;7.95;;
48805;SDS011;34625;47.176;27.548;2022-11-20T07:35:20;5.68;;;4.93;;
48805;SDS011;34625;47.176;27.548;2022-11-20T07:37:47;5.63;;;4.22;;
48805;SDS011;34625;47.176;27.548;2022-11-20T07:40:14;5.10;;;4.18;;
48805;SDS011;34625;47.176;27.548;2022-11-20T07:42:50;6.03;;;4.57;;
48805;SDS011;34625;47.176;27.548;2022-11-20T07:45:17;8.75;;;4.80;;
48805;SDS011;34625;47.176;27.548;2022-11-20T07:47:44;3.60;;;2.88;;
48805;SDS011;34625;47.176;27.548;2022-11-20T07:50:10;5.38;;;3.60;;
48805;SDS011;34625;47.176;27.548;2022-11-20T07:52:37;4.32;;;3.10;;
48805;SDS011;34625;47.176;27.548;2022-11-20T07:55:03;4.13;;;3.40;;
48805;SDS011;34625;47.176;27.548;2022-11-20T07:57:30;3.88;;;2.70;;
48805;SDS011;34625;47.176;27.548;2022-11-20T07:59:56;4.53;;;3.88;;
48805;SDS011;34625;47.176;27.548;2022-11-20T08:02:22;5.82;;;3.83;;
48805;SDS011;34625;47.176;27.548;2022-11-20T08:04:48;4.88;;;3.85;;
48805;SDS011;34625;47.176;27.548;2022-11-20T08:07:14;6.43;;;4.20;;
48805;SDS011;34625;47.176;27.548;2022-11-20T08:09:40;9.68;;;7.10;;
48805;SDS011;34625;47.176;27.548;2022-11-20T08:12:06;8.60;;;5.47;;
48805;SDS011;34625;47.176;27.548;2022-11-20T08:14:51;5.05;;;3.70;;
48805;SDS011;34625;47.176;27.548;2022-11-20T08:17:17;7.88;;;5.38;;
48805;SDS011;34625;47.176;27.548;2022-11-20T08:19:43;8.15;;;5.65;;
48805;SDS011;34625;47.176;27.548;2022-11-20T08:22:09;12.07;;;7.00;;
48805;SDS011;34625;47.176;27.548;2022-11-20T08:24:35;8.88;;;6.47;;
48805;SDS011;34625;47.176;27.548;2022-11-20T08:27:01;7.20;;;5.68;;
48805;SDS011;34625;47.176;27.548;2022-11-20T08:29:27;8.07;;;6.57;;
48805;SDS011;34625;47.176;27.548;2022-11-20T08:31:53;6.93;;;5.38;;
48805;SDS011;34625;47.176;27.548;2022-11-20T08:34:19;7.30;;;6.13;;
48805;SDS011;34625;47.176;27.548;2022-11-20T08:36:45;8.52;;;6.43;;
48805;SDS011;34625;47.176;27.548;2022-11-20T08:39:11;7.25;;;6.28;;
48805;SDS011;34625;47.176;27.548;2022-11-20T08:41:38;6.50;;;5.22;;
48805;SDS011;34625;47.176;27.548;2022-11-20T08:44:05;9.10;;;7.15;;
48805;SDS011;34625;47.176;27.548;2022-11-20T08:46:36;9.15;;;6.63;;
48805;SDS011;34625;47.176;27.548;2022-11-20T08:49:05;4.88;;;4.38;;
48805;SDS011;34625;47.176;27.548;2022-11-20T08:51:33;4.90;;;3.88;;
48805;SDS011;34625;47.176;27.548;2022-11-20T08:53:59;4.32;;;3.53;;
48805;SDS011;34625;47.176;27.548;2022-11-20T08:56:25;4.97;;;4.05;;
48805;SDS011;34625;47.176;27.548;2022-11-20T08:58:51;4.80;;;3.75;;
48805;SDS011;34625;47.176;27.548;2022-11-20T09:01:18;5.15;;;4.07;;
48805;SDS011;34625;47.176;27.548;2022-11-20T09:03:45;5.68;;;4.05;;
48805;SDS011;34625;47.176;27.548;2022-11-20T09:06:11;5.72;;;5.13;;
48805;SDS011;34625;47.176;27.548;2022-11-20T09:08:38;6.53;;;4.85;;
48805;SDS011;34625;47.176;27.548;2022-11-20T09:11:04;4.65;;;3.88;;
48805;SDS011;34625;47.176;27.548;2022-11-20T09:13:31;17.40;;;6.88;;
48805;SDS011;34625;47.176;27.548;2022-11-20T09:16:00;8.23;;;6.13;;
48805;SDS011;34625;47.176;27.548;2022-11-20T09:18:32;8.32;;;5.70;;
48805;SDS011;34625;47.176;27.548;2022-11-20T09:20:59;9.38;;;6.15;;
48805;SDS011;34625;47.176;27.548;2022-11-20T09:23:27;7.78;;;5.97;;
48805;SDS011;34625;47.176;27.548;2022-11-20T09:25:56;12.95;;;7.40;;
48805;SDS011;34625;47.176;27.548;2022-11-20T09:28:25;11.15;;;7.43;;
48805;SDS011;34625;47.176;27.548;2022-11-20T09:30:51;11.32;;;7.55;;
48805;SDS011;34625;47.176;27.548;2022-11-20T09:33:17;12.45;;;7.00;;
48805;SDS011;34625;47.176;27.548;2022-11-20T09:35:43;9.60;;;6.72;;
48805;SDS011;34625;47.176;27.548;2022-11-20T09:38:10;8.68;;;6.03;;
48805;SDS011;34625;47.176;27.548;2022-11-20T09:40:39;11.48;;;7.88;;
48805;SDS011;34625;47.176;27.548;2022-11-20T09:51:57;11.25;;;7.35;;
48805;SDS011;34625;47.176;27.548;2022-11-20T09:57:01;14.20;;;10.73;;
48805;SDS011;34625;47.176;27.548;2022-11-20T10:05:00;18.92;;;12.88;;
48805;SDS011;34625;47.176;27.548;2022-11-20T10:10:15;11.75;;;10.05;;
48805;SDS011;34625;47.176;27.548;2022-11-20T10:13:00;11.57;;;9.48;;
48805;SDS011;34625;47.176;27.548;2022-11-20T10:16:00;10.90;;;8.07;;
48805;SDS011;34625;47.176;27.548;2022-11-20T10:24:18;9.05;;;8.15;;
48805;SDS011;34625;47.176;27.548;2022-11-20T10:30:19;11.90;;;8.48;;
48805;SDS011;34625;47.176;27.548;2022-11-20T10:33:06;8.52;;;6.47;;
48805;SDS011;34625;47.176;27.548;2022-11-20T10:35:39;8.70;;;6.63;;
48805;SDS011;34625;47.176;27.548;2022-11-20T10:38:23;9.88;;;6.30;;
48805;SDS011;34625;47.176;27.548;2022-11-20T10:41:01;7.47;;;5.63;;
48805;SDS011;34625;47.176;27.548;2022-11-20T10:43:46;10.88;;;6.65;;
48805;SDS011;34625;47.176;27.548;2022-11-20T10:46:17;9.35;;;6.15;;
48805;SDS011;34625;47.176;27.548;2022-11-20T10:48:47;37.58;;;10.82;;
48805;SDS011;34625;47.176;27.548;2022-11-20T10:56:51;10.05;;;6.97;;
48805;SDS011;34625;47.176;27.548;2022-11-20T11:02:00;17.08;;;9.88;;
48805;SDS011;34625;47.176;27.548;2022-11-20T11:07:00;12.02;;;7.47;;
48805;SDS011;34625;47.176;27.548;2022-11-20T11:09:33;7.63;;;6.75;;
48805;SDS011;34625;47.176;27.548;2022-11-20T11:12:07;7.28;;;5.70;;
48805;SDS011;34625;47.176;27.548;2022-11-20T11:17:34;7.45;;;6.10;;
48805;SDS011;34625;47.176;27.548;2022-11-20T11:22:53;6.65;;;5.95;;
48805;SDS011;34625;47.176;27.548;2022-11-20T11:27:50;7.72;;;5.93;;
48805;SDS011;34625;47.176;27.548;2022-11-20T11:30:18;7.75;;;6.30;;
48805;SDS011;34625;47.176;27.548;2022-11-20T11:32:45;7.75;;;6.82;;
48805;SDS011;34625;47.176;27.548;2022-11-20T11:37:55;8.77;;;6.72;;
48805;SDS011;34625;47.176;27.548;2022-11-20T11:40:30;8.77;;;6.60;;
48805;SDS011;34625;47.176;27.548;2022-11-20T11:42:59;8.05;;;6.57;;
48805;SDS011;34625;47.176;27.548;2022-11-20T11:45:30;8.02;;;6.63;;
48805;SDS011;34625;47.176;27.548;2022-11-20T11:47:57;13.10;;;8.50;;
48805;SDS011;34625;47.176;27.548;2022-11-20T11:50:26;11.88;;;7.35;;
48805;SDS011;34625;47.176;27.548;2022-11-20T11:53:16;10.30;;;7.18;;
48805;SDS011;34625;47.176;27.548;2022-11-20T11:55:58;12.73;;;9.27;;
48805;SDS011;34625;47.176;27.548;2022-11-20T12:04:05;12.60;;;8.95;;
48805;SDS011;34625;47.176;27.548;2022-11-20T12:06:44;11.00;;;9.02;;
48805;SDS011;34625;47.176;27.548;2022-11-20T12:09:13;12.88;;;8.90;;
48805;SDS011;34625;47.176;27.548;2022-11-20T12:14:34;12.85;;;9.02;;
48805;SDS011;34625;47.176;27.548;2022-11-20T12:17:04;13.35;;;9.02;;
48805;SDS011;34625;47.176;27.548;2022-11-20T12:19:36;12.98;;;9.27;;
48805;SDS011;34625;47.176;27.548;2022-11-20T12:30:14;9.98;;;7.30;;
48805;SDS011;34625;47.176;27.548;2022-11-20T12:47:36;22.00;;;12.18;;
48805;SDS011;34625;47.176;27.548;2022-11-20T13:07:16;23.52;;;13.88;;
48805;SDS011;34625;47.176;27.548;2022-11-20T13:09:48;22.45;;;11.85;;
48805;SDS011;34625;47.176;27.548;2022-11-20T13:17:52;21.00;;;12.07;;
48805;SDS011;34625;47.176;27.548;2022-11-20T13:20:23;17.40;;;11.10;;
48805;SDS011;34625;47.176;27.548;2022-11-20T13:25:24;17.35;;;10.88;;
48805;SDS011;34625;47.176;27.548;2022-11-20T13:27:55;17.08;;;11.35;;
48805;SDS011;34625;47.176;27.548;2022-11-20T13:30:26;14.90;;;9.95;;
48805;SDS011;34625;47.176;27.548;2022-11-20T13:32:57;12.85;;;9.15;;
48805;SDS011;34625;47.176;27.548;2022-11-20T13:35:35;14.65;;;8.93;;
48805;SDS011;34625;47.176;27.548;2022-11-20T13:40:39;20.52;;;11.10;;
48805;SDS011;34625;47.176;27.548;2022-11-20T13:43:21;16.42;;;11.18;;
48805;SDS011;34625;47.176;27.548;2022-11-20T13:45:58;10.35;;;8.18;;
48805;SDS011;34625;47.176;27.548;2022-11-20T13:48:26;234.23;;;57.22;;
48805;SDS011;34625;47.176;27.548;2022-11-20T14:02:05;16.95;;;11.00;;
48805;SDS011;34625;47.176;27.548;2022-11-20T14:04:41;19.80;;;12.27;;
48805;SDS011;34625;47.176;27.548;2022-11-20T14:07:10;20.55;;;13.38;;
48805;SDS011;34625;47.176;27.548;2022-11-20T14:09:38;26.23;;;14.65;;
48805;SDS011;34625;47.176;27.548;2022-11-20T14:12:12;24.80;;;13.35;;
48805;SDS011;34625;47.176;27.548;2022-11-20T14:14:47;24.63;;;13.27;;
48805;SDS011;34625;47.176;27.548;2022-11-20T14:17:19;27.20;;;14.50;;
48805;SDS011;34625;47.176;27.548;2022-11-20T14:19:46;26.35;;;15.13;;
48805;SDS011;34625;47.176;27.548;2022-11-20T14:24:45;26.73;;;14.38;;
48805;SDS011;34625;47.176;27.548;2022-11-20T14:27:26;22.65;;;13.02;;
48805;SDS011;34625;47.176;27.548;2022-11-20T14:29:52;25.95;;;14.85;;
48805;SDS011;34625;47.176;27.548;2022-11-20T14:32:19;24.23;;;14.48;;
48805;SDS011;34625;47.176;27.548;2022-11-20T14:34:53;20.33;;;12.20;;
48805;SDS011;34625;47.176;27.548;2022-11-20T14:37:21;25.20;;;13.88;;
48805;SDS011;34625;47.176;27.548;2022-11-20T14:39:53;27.88;;;15.98;;
48805;SDS011;34625;47.176;27.548;2022-11-20T14:42:22;23.40;;;14.18;;
48805;SDS011;34625;47.176;27.548;2022-11-20T14:44:50;22.98;;;13.73;;
48805;SDS011;34625;47.176;27.548;2022-11-20T14:47:21;26.83;;;15.60;;
48805;SDS011;34625;47.176;27.548;2022-11-20T14:49:50;26.93;;;16.70;;
48805;SDS011;34625;47.176;27.548;2022-11-20T14:52:22;25.67;;;15.02;;
48805;SDS011;34625;47.176;27.548;2022-11-20T14:54:50;25.02;;;14.65;;
48805;SDS011;34625;47.176;27.548;2022-11-20T14:57:22;30.35;;;15.32;;
48805;SDS011;34625;47.176;27.548;2022-11-20T14:59:50;21.80;;;13.83;;
48805;SDS011;34625;47.176;27.548;2022-11-20T15:02:16;21.83;;;13.18;;
48805;SDS011;34625;47.176;27.548;2022-11-20T15:04:46;19.20;;;12.85;;
48805;SDS011;34625;47.176;27.548;2022-11-20T15:07:22;21.95;;;13.32;;
48805;SDS011;34625;47.176;27.548;2022-11-20T15:10:07;23.23;;;13.45;;
48805;SDS011;34625;47.176;27.548;2022-11-20T15:12:36;18.20;;;12.15;;
48805;SDS011;34625;47.176;27.548;2022-11-20T15:15:05;22.52;;;12.55;;
48805;SDS011;34625;47.176;27.548;2022-11-20T15:17:35;21.70;;;14.40;;
48805;SDS011;34625;47.176;27.548;2022-11-20T15:20:05;7.00;;;4.93;;
48805;SDS011;34625;47.176;27.548;2022-11-20T15:22:41;2.10;;;1.25;;
48805;SDS011;34625;47.176;27.548;2022-11-20T15:25:14;11.65;;;3.35;;
48805;SDS011;34625;47.176;27.548;2022-11-20T15:27:42;2.75;;;2.38;;
48805;SDS011;34625;47.176;27.548;2022-11-20T15:30:12;2.58;;;2.22;;
48805;SDS011;34625;47.176;27.548;2022-11-20T15:32:43;24.25;;;3.95;;
48805;SDS011;34625;47.176;27.548;2022-11-20T15:35:10;2.55;;;1.25;;
48805;SDS011;34625;47.176;27.548;2022-11-20T15:37:36;11.88;;;3.53;;
48805;SDS011;34625;47.176;27.548;2022-11-20T15:40:03;10.55;;;5.45;;
48805;SDS011;34625;47.176;27.548;2022-11-20T15:42:31;4.85;;;4.25;;
48805;SDS011;34625;47.176;27.548;2022-11-20T15:44:57;18.00;;;9.82;;
48805;SDS011;34625;47.176;27.548;2022-11-20T15:47:25;29.48;;;14.35;;
48805;SDS011;34625;47.176;27.548;2022-11-20T15:49:55;18.70;;;11.07;;
48805;SDS011;34625;47.176;27.548;2022-11-20T15:52:21;24.38;;;12.77;;
48805;SDS011;34625;47.176;27.548;2022-11-20T15:54:47;26.52;;;13.73;;
48805;SDS011;34625;47.176;27.548;2022-11-20T15:57:13;24.65;;;15.45;;
48805;SDS011;34625;47.176;27.548;2022-11-20T15:59:39;21.48;;;13.25;;
48805;SDS011;34625;47.176;27.548;2022-11-20T16:02:13;20.92;;;11.23;;
48805;SDS011;34625;47.176;27.548;2022-11-20T16:04:40;26.55;;;15.73;;
48805;SDS011;34625;47.176;27.548;2022-11-20T16:07:07;28.60;;;16.25;;
48805;SDS011;34625;47.176;27.548;2022-11-20T16:09:33;27.30;;;16.65;;
48805;SDS011;34625;47.176;27.548;2022-11-20T16:11:59;24.08;;;16.05;;
48805;SDS011;34625;47.176;27.548;2022-11-20T16:14:26;26.05;;;16.67;;
48805;SDS011;34625;47.176;27.548;2022-11-20T16:17:11;25.60;;;14.63;;
48805;SDS011;34625;47.176;27.548;2022-11-20T16:19:37;27.98;;;15.57;;
48805;SDS011;34625;47.176;27.548;2022-11-20T16:22:03;24.48;;;15.57;;
48805;SDS011;34625;47.176;27.548;2022-11-20T16:24:29;27.38;;;15.30;;
48805;SDS011;34625;47.176;27.548;2022-11-20T16:26:55;28.88;;;16.58;;
48805;SDS011;34625;47.176;27.548;2022-11-20T16:29:22;26.20;;;15.75;;
48805;SDS011;34625;47.176;27.548;2022-11-20T16:31:48;30.00;;;15.40;;
48805;SDS011;34625;47.176;27.548;2022-11-20T16:34:15;28.67;;;16.48;;
48805;SDS011;34625;47.176;27.548;2022-11-20T16:36:42;25.45;;;14.85;;
48805;SDS011;34625;47.176;27.548;2022-11-20T16:39:10;24.45;;;15.10;;
48805;SDS011;34625;47.176;27.548;2022-11-20T16:41:36;20.42;;;12.30;;
48805;SDS011;34625;47.176;27.548;2022-11-20T16:44:05;21.40;;;13.00;;
48805;SDS011;34625;47.176;27.548;2022-11-20T16:46:34;22.98;;;13.45;;